sensor_id;sensor_type;location;lat;lon;timestamp;pressure;altitude;pressure_sealevel;temperature;humidity
70909;BME280;58554;52.006;5.926;2023-02-15T00:00:53;102108.31;;;1.76;79.79
70909;BME280;58554;52.006;5.926;2023-02-15T00:03:20;102103.97;;;1.78;79.79
70909;BME280;58554;52.006;5.926;2023-02-15T00:05:49;102108.31;;;1.78;79.79
70909;BME280;58554;52.006;5.926;2023-02-15T00:08:16;102105.72;;;1.78;79.98
70909;BME280;58554;52.006;5.926;2023-02-15T00:10:42;102103.94;;;1.77;79.86
70909;BME280;58554;52.006;5.926;2023-02-15T00:13:08;102103.06;;;1.75;79.87
70909;BME280;58554;52.006;5.926;2023-02-15T00:15:35;102103.09;;;1.73;80.17
70909;BME280;58554;52.006;5.926;2023-02-15T00:18:01;102094.41;;;1.71;79.88
70909;BME280;58554;52.006;5.926;2023-02-15T00:20:28;102097.88;;;1.70;80.29
70909;BME280;58554;52.006;5.926;2023-02-15T00:22:58;102103.09;;;1.70;80.20
70909;BME280;58554;52.006;5.926;2023-02-15T00:25:25;102099.63;;;1.71;80.33
70909;BME280;58554;52.006;5.926;2023-02-15T00:27:51;102107.44;;;1.68;80.48
70909;BME280;58554;52.006;5.926;2023-02-15T00:30:18;102106.56;;;1.68;80.21
70909;BME280;58554;52.006;5.926;2023-02-15T00:32:47;102098.72;;;1.64;80.33
70909;BME280;58554;52.006;5.926;2023-02-15T00:35:13;102107.41;;;1.62;80.39
70909;BME280;58554;52.006;5.926;2023-02-15T00:37:40;102098.75;;;1.58;80.52
70909;BME280;58554;52.006;5.926;2023-02-15T00:40:10;102100.47;;;1.56;80.15
70909;BME280;58554;52.006;5.926;2023-02-15T00:42:37;102083.09;;;1.52;80.47
70909;BME280;58554;52.006;5.926;2023-02-15T00:45:05;102086.56;;;1.51;80.62
70909;BME280;58554;52.006;5.926;2023-02-15T00:47:32;102084.81;;;1.47;80.48
70909;BME280;58554;52.006;5.926;2023-02-15T00:49:58;102085.66;;;1.43;80.32
70909;BME280;58554;52.006;5.926;2023-02-15T00:52:25;102077.84;;;1.40;80.30
70909;BME280;58554;52.006;5.926;2023-02-15T00:54:51;102082.19;;;1.39;80.32
70909;BME280;58554;52.006;5.926;2023-02-15T00:57:20;102080.44;;;1.35;80.61
70909;BME280;58554;52.006;5.926;2023-02-15T00:59:47;102085.63;;;1.31;80.43
70909;BME280;58554;52.006;5.926;2023-02-15T01:02:13;102081.28;;;1.27;80.31
70909;BME280;58554;52.006;5.926;2023-02-15T01:04:40;102077.81;;;1.23;80.27
70909;BME280;58554;52.006;5.926;2023-02-15T01:07:06;102073.47;;;1.19;80.51
70909;BME280;58554;52.006;5.926;2023-02-15T01:09:33;102069.09;;;1.16;80.28
70909;BME280;58554;52.006;5.926;2023-02-15T01:11:59;102070.81;;;1.10;80.41
70909;BME280;58554;52.006;5.926;2023-02-15T01:14:28;102063.00;;;1.07;80.22
70909;BME280;58554;52.006;5.926;2023-02-15T01:16:55;102062.13;;;1.05;80.30
70909;BME280;58554;52.006;5.926;2023-02-15T01:19:21;102056.91;;;1.01;80.31
70909;BME280;58554;52.006;5.926;2023-02-15T01:21:48;102057.75;;;1.02;80.39
70909;BME280;58554;52.006;5.926;2023-02-15T01:24:14;102059.50;;;1.00;80.64
70909;BME280;58554;52.006;5.926;2023-02-15T01:26:40;102055.19;;;1.00;80.74
70909;BME280;58554;52.006;5.926;2023-02-15T01:29:07;102049.09;;;1.01;81.00
70909;BME280;58554;52.006;5.926;2023-02-15T01:31:36;102052.56;;;1.02;81.16
70909;BME280;58554;52.006;5.926;2023-02-15T01:34:02;102043.03;;;1.02;81.04
70909;BME280;58554;52.006;5.926;2023-02-15T01:36:29;102041.31;;;1.05;81.16
70909;BME280;58554;52.006;5.926;2023-02-15T01:38:55;102039.56;;;1.08;81.31
70909;BME280;58554;52.006;5.926;2023-02-15T01:41:22;102037.81;;;1.10;81.42
70909;BME280;58554;52.006;5.926;2023-02-15T01:43:50;102038.72;;;1.11;81.33
70909;BME280;58554;52.006;5.926;2023-02-15T01:46:22;102030.91;;;1.11;81.45
70909;BME280;58554;52.006;5.926;2023-02-15T01:49:01;102043.94;;;1.11;81.24
70909;BME280;58554;52.006;5.926;2023-02-15T01:51:32;102041.31;;;1.12;81.59
70909;BME280;58554;52.006;5.926;2023-02-15T01:54:07;102036.09;;;1.11;81.28
70909;BME280;58554;52.006;5.926;2023-02-15T01:56:39;102034.34;;;1.10;81.55
70909;BME280;58554;52.006;5.926;2023-02-15T01:59:11;102042.16;;;1.10;81.36
70909;BME280;58554;52.006;5.926;2023-02-15T02:01:43;102030.03;;;1.09;81.61
70909;BME280;58554;52.006;5.926;2023-02-15T02:04:17;102023.94;;;1.10;81.80
70909;BME280;58554;52.006;5.926;2023-02-15T02:06:52;102029.16;;;1.11;82.01
70909;BME280;58554;52.006;5.926;2023-02-15T02:09:20;102023.09;;;1.11;81.85
70909;BME280;58554;52.006;5.926;2023-02-15T02:11:47;102031.75;;;1.08;81.73
70909;BME280;58554;52.006;5.926;2023-02-15T02:14:14;102023.94;;;1.05;81.72
70909;BME280;58554;52.006;5.926;2023-02-15T02:16:49;102014.38;;;1.02;81.66
70909;BME280;58554;52.006;5.926;2023-02-15T02:19:51;102023.91;;;1.02;81.46
70909;BME280;58554;52.006;5.926;2023-02-15T02:29:30;102010.88;;;0.90;81.69
70909;BME280;58554;52.006;5.926;2023-02-15T02:35:36;102010.84;;;0.85;81.91
70909;BME280;58554;52.006;5.926;2023-02-15T02:38:19;102003.03;;;0.82;81.93
70909;BME280;58554;52.006;5.926;2023-02-15T02:40:57;102008.25;;;0.84;82.02
70909;BME280;58554;52.006;5.926;2023-02-15T02:43:40;101992.63;;;0.84;82.14
70909;BME280;58554;52.006;5.926;2023-02-15T02:46:19;101995.25;;;0.84;81.96
70909;BME280;58554;52.006;5.926;2023-02-15T02:48:50;101992.63;;;0.82;82.05
70909;BME280;58554;52.006;5.926;2023-02-15T02:51:18;101987.41;;;0.80;82.16
70909;BME280;58554;52.006;5.926;2023-02-15T02:53:45;101985.69;;;0.79;82.10
70909;BME280;58554;52.006;5.926;2023-02-15T02:56:20;101990.88;;;0.79;82.12
70909;BME280;58554;52.006;5.926;2023-02-15T02:58:53;101978.72;;;0.77;81.97
70909;BME280;58554;52.006;5.926;2023-02-15T03:01:29;101976.97;;;0.76;82.03
70909;BME280;58554;52.006;5.926;2023-02-15T03:04:06;101984.78;;;0.76;82.26
70909;BME280;58554;52.006;5.926;2023-02-15T03:06:40;101977.84;;;0.73;82.12
70909;BME280;58554;52.006;5.926;2023-02-15T03:09:17;101971.75;;;0.73;82.28
70909;BME280;58554;52.006;5.926;2023-02-15T03:11:50;101969.16;;;0.70;82.34
70909;BME280;58554;52.006;5.926;2023-02-15T03:14:18;101970.91;;;0.69;82.33
70909;BME280;58554;52.006;5.926;2023-02-15T03:16:47;101964.78;;;0.69;82.42
70909;BME280;58554;52.006;5.926;2023-02-15T03:19:23;101968.28;;;0.69;82.54
70909;BME280;58554;52.006;5.926;2023-02-15T03:21:56;101962.19;;;0.69;82.22
70909;BME280;58554;52.006;5.926;2023-02-15T03:24:32;101961.34;;;0.65;82.38
70909;BME280;58554;52.006;5.926;2023-02-15T03:27:06;101958.72;;;0.62;82.14
70909;BME280;58554;52.006;5.926;2023-02-15T03:29:39;101965.66;;;0.58;82.23
70909;BME280;58554;52.006;5.926;2023-02-15T03:32:09;101958.72;;;0.54;82.20
70909;BME280;58554;52.006;5.926;2023-02-15T03:34:39;101947.41;;;0.54;82.25
70909;BME280;58554;52.006;5.926;2023-02-15T03:37:11;101943.94;;;0.52;82.20
70909;BME280;58554;52.006;5.926;2023-02-15T03:39:48;101941.31;;;0.52;82.48
70909;BME280;58554;52.006;5.926;2023-02-15T03:42:26;101939.59;;;0.51;82.35
70909;BME280;58554;52.006;5.926;2023-02-15T03:45:01;101938.72;;;0.49;82.38
70909;BME280;58554;52.006;5.926;2023-02-15T03:47:36;101946.53;;;0.47;82.17
70909;BME280;58554;52.006;5.926;2023-02-15T03:50:10;101940.44;;;0.44;82.06
70909;BME280;58554;52.006;5.926;2023-02-15T03:52:42;101939.56;;;0.43;82.23
70909;BME280;58554;52.006;5.926;2023-02-15T03:55:09;101930.03;;;0.42;82.14
70909;BME280;58554;52.006;5.926;2023-02-15T03:57:36;101936.09;;;0.41;82.29
70909;BME280;58554;52.006;5.926;2023-02-15T04:00:11;101936.09;;;0.38;82.28
70909;BME280;58554;52.006;5.926;2023-02-15T04:02:45;101930.00;;;0.37;82.35
70909;BME280;58554;52.006;5.926;2023-02-15T04:05:24;101929.13;;;0.37;82.30
70909;BME280;58554;52.006;5.926;2023-02-15T04:07:50;101930.88;;;0.36;82.54
70909;BME280;58554;52.006;5.926;2023-02-15T04:10:17;101935.19;;;0.37;82.63
70909;BME280;58554;52.006;5.926;2023-02-15T04:12:44;101927.41;;;0.37;82.79
70909;BME280;58554;52.006;5.926;2023-02-15T04:15:12;101932.59;;;0.37;82.57
70909;BME280;58554;52.006;5.926;2023-02-15T04:17:39;101931.75;;;0.38;82.75
70909;BME280;58554;52.006;5.926;2023-02-15T04:20:08;101935.22;;;0.40;82.46
70909;BME280;58554;52.006;5.926;2023-02-15T04:22:37;101917.88;;;0.41;82.79
70909;BME280;58554;52.006;5.926;2023-02-15T04:25:05;101919.63;;;0.42;82.68
70909;BME280;58554;52.006;5.926;2023-02-15T04:27:31;101917.03;;;0.42;82.80
70909;BME280;58554;52.006;5.926;2023-02-15T04:29:58;101923.09;;;0.44;82.69
70909;BME280;58554;52.006;5.926;2023-02-15T04:32:24;101910.94;;;0.41;82.95
70909;BME280;58554;52.006;5.926;2023-02-15T04:34:51;101920.47;;;0.41;82.98
70909;BME280;58554;52.006;5.926;2023-02-15T04:37:18;101921.34;;;0.40;82.81
70909;BME280;58554;52.006;5.926;2023-02-15T04:39:47;101927.41;;;0.37;82.66
70909;BME280;58554;52.006;5.926;2023-02-15T04:42:13;101921.31;;;0.35;82.82
70909;BME280;58554;52.006;5.926;2023-02-15T04:44:40;101927.41;;;0.34;82.92
70909;BME280;58554;52.006;5.926;2023-02-15T04:47:07;101911.78;;;0.31;82.85
70909;BME280;58554;52.006;5.926;2023-02-15T04:49:34;101919.59;;;0.31;82.88
70909;BME280;58554;52.006;5.926;2023-02-15T04:52:01;101913.53;;;0.29;82.75
70909;BME280;58554;52.006;5.926;2023-02-15T04:54:27;101914.38;;;0.30;83.02
70909;BME280;58554;52.006;5.926;2023-02-15T04:56:57;101926.53;;;0.29;83.21
70909;BME280;58554;52.006;5.926;2023-02-15T04:59:23;101905.72;;;0.29;83.04
70909;BME280;58554;52.006;5.926;2023-02-15T05:01:50;101907.44;;;0.29;83.00
70909;BME280;58554;52.006;5.926;2023-02-15T05:04:16;101910.03;;;0.29;82.79
70909;BME280;58554;52.006;5.926;2023-02-15T05:06:43;101910.91;;;0.28;82.95
70909;BME280;58554;52.006;5.926;2023-02-15T05:09:10;101910.03;;;0.26;83.13
70909;BME280;58554;52.006;5.926;2023-02-15T05:11:37;101898.75;;;0.25;82.95
70909;BME280;58554;52.006;5.926;2023-02-15T05:14:07;101912.63;;;0.24;83.19
70909;BME280;58554;52.006;5.926;2023-02-15T05:16:33;101911.75;;;0.22;83.23
70909;BME280;58554;52.006;5.926;2023-02-15T05:19:00;101910.88;;;0.20;83.13
70909;BME280;58554;52.006;5.926;2023-02-15T05:21:27;101905.66;;;0.17;83.24
70909;BME280;58554;52.006;5.926;2023-02-15T05:23:53;101898.72;;;0.17;83.14
70909;BME280;58554;52.006;5.926;2023-02-15T05:26:23;101897.84;;;0.15;83.17
70909;BME280;58554;52.006;5.926;2023-02-15T05:28:51;101893.50;;;0.14;83.18
70909;BME280;58554;52.006;5.926;2023-02-15T05:31:21;101894.34;;;0.12;83.18
70909;BME280;58554;52.006;5.926;2023-02-15T05:33:47;101892.63;;;0.09;83.27
70909;BME280;58554;52.006;5.926;2023-02-15T05:36:14;101891.75;;;0.07;83.17
70909;BME280;58554;52.006;5.926;2023-02-15T05:38:40;101891.72;;;0.06;82.98
70909;BME280;58554;52.006;5.926;2023-02-15T05:41:09;101890.00;;;0.05;83.09
70909;BME280;58554;52.006;5.926;2023-02-15T05:43:37;101880.44;;;0.02;83.16
70909;BME280;58554;52.006;5.926;2023-02-15T05:46:05;101876.13;;;-0.02;83.19
70909;BME280;58554;52.006;5.926;2023-02-15T05:48:34;101882.16;;;-0.03;83.16
70909;BME280;58554;52.006;5.926;2023-02-15T05:51:03;101874.38;;;-0.06;83.13
70909;BME280;58554;52.006;5.926;2023-02-15T05:53:33;101880.44;;;-0.06;82.94
70909;BME280;58554;52.006;5.926;2023-02-15T05:56:04;101883.88;;;-0.08;82.95
70909;BME280;58554;52.006;5.926;2023-02-15T05:58:33;101886.47;;;-0.10;83.05
70909;BME280;58554;52.006;5.926;2023-02-15T06:01:08;101889.06;;;-0.10;83.14
70909;BME280;58554;52.006;5.926;2023-02-15T06:03:37;101893.41;;;-0.10;83.33
70909;BME280;58554;52.006;5.926;2023-02-15T06:06:05;101889.06;;;-0.10;83.46
70909;BME280;58554;52.006;5.926;2023-02-15T06:08:32;101898.63;;;-0.10;83.25
70909;BME280;58554;52.006;5.926;2023-02-15T06:11:00;101905.50;;;-0.11;83.37
70909;BME280;58554;52.006;5.926;2023-02-15T06:13:27;101891.63;;;-0.13;83.37
70909;BME280;58554;52.006;5.926;2023-02-15T06:15:54;101894.25;;;-0.14;83.23
70909;BME280;58554;52.006;5.926;2023-02-15T06:18:20;101889.91;;;-0.18;83.26
70909;BME280;58554;52.006;5.926;2023-02-15T06:20:50;101900.28;;;-0.18;82.83
70909;BME280;58554;52.006;5.926;2023-02-15T06:23:17;101894.22;;;-0.22;83.21
70909;BME280;58554;52.006;5.926;2023-02-15T06:25:44;101892.47;;;-0.22;83.20
70909;BME280;58554;52.006;5.926;2023-02-15T06:28:12;101887.28;;;-0.22;83.20
70909;BME280;58554;52.006;5.926;2023-02-15T06:30:38;101888.13;;;-0.21;83.55
70909;BME280;58554;52.006;5.926;2023-02-15T06:33:05;101885.53;;;-0.24;83.26
70909;BME280;58554;52.006;5.926;2023-02-15T06:35:31;101895.06;;;-0.22;83.33
70909;BME280;58554;52.006;5.926;2023-02-15T06:38:00;101896.78;;;-0.24;83.46
70909;BME280;58554;52.006;5.926;2023-02-15T06:40:27;101902.00;;;-0.24;83.38
70909;BME280;58554;52.006;5.926;2023-02-15T06:42:54;101894.19;;;-0.27;83.38
70909;BME280;58554;52.006;5.926;2023-02-15T06:45:20;101888.94;;;-0.30;83.28
70909;BME280;58554;52.006;5.926;2023-02-15T06:47:47;101891.53;;;-0.31;83.49
70909;BME280;58554;52.006;5.926;2023-02-15T06:50:13;101901.09;;;-0.30;83.55
70909;BME280;58554;52.006;5.926;2023-02-15T06:52:40;101889.81;;;-0.32;83.31
70909;BME280;58554;52.006;5.926;2023-02-15T06:55:18;101891.56;;;-0.33;83.27
70909;BME280;58554;52.006;5.926;2023-02-15T06:57:48;101881.16;;;-0.33;83.44
70909;BME280;58554;52.006;5.926;2023-02-15T07:00:15;101882.88;;;-0.33;83.56
70909;BME280;58554;52.006;5.926;2023-02-15T07:02:42;101882.88;;;-0.33;83.52
70909;BME280;58554;52.006;5.926;2023-02-15T07:05:08;101876.81;;;-0.32;83.85
70909;BME280;58554;52.006;5.926;2023-02-15T07:07:35;101879.44;;;-0.31;84.25
70909;BME280;58554;52.006;5.926;2023-02-15T07:10:03;101869.03;;;-0.29;84.87
70909;BME280;58554;52.006;5.926;2023-02-15T07:12:33;101874.25;;;-0.26;84.45
70909;BME280;58554;52.006;5.926;2023-02-15T07:15:00;101869.06;;;-0.22;84.31
70909;BME280;58554;52.006;5.926;2023-02-15T07:17:26;101868.22;;;-0.19;84.33
70909;BME280;58554;52.006;5.926;2023-02-15T07:19:53;101868.25;;;-0.14;84.31
70909;BME280;58554;52.006;5.926;2023-02-15T07:22:20;101867.41;;;-0.09;84.34
70909;BME280;58554;52.006;5.926;2023-02-15T07:24:46;101868.31;;;-0.04;84.31
70909;BME280;58554;52.006;5.926;2023-02-15T07:27:13;101862.25;;;-0.01;84.46
70909;BME280;58554;52.006;5.926;2023-02-15T07:29:42;101861.38;;;0.03;84.28
70909;BME280;58554;52.006;5.926;2023-02-15T07:32:08;101844.06;;;0.08;84.22
70909;BME280;58554;52.006;5.926;2023-02-15T07:34:35;101850.16;;;0.12;84.16
70909;BME280;58554;52.006;5.926;2023-02-15T07:37:04;101848.41;;;0.14;84.49
70909;BME280;58554;52.006;5.926;2023-02-15T07:39:30;101850.16;;;0.18;84.58
70909;BME280;58554;52.006;5.926;2023-02-15T07:41:56;101851.91;;;0.22;84.52
70909;BME280;58554;52.006;5.926;2023-02-15T07:44:23;101848.44;;;0.25;84.62
70909;BME280;58554;52.006;5.926;2023-02-15T07:46:52;101842.38;;;0.29;84.89
70909;BME280;58554;52.006;5.926;2023-02-15T07:49:19;101839.81;;;0.36;84.62
70909;BME280;58554;52.006;5.926;2023-02-15T07:51:45;101841.56;;;0.47;84.89
70909;BME280;58554;52.006;5.926;2023-02-15T07:54:12;101846.78;;;0.57;84.86
70909;BME280;58554;52.006;5.926;2023-02-15T07:56:38;101839.84;;;0.64;84.80
70909;BME280;58554;52.006;5.926;2023-02-15T07:59:05;101846.78;;;0.68;85.28
70909;BME280;58554;52.006;5.926;2023-02-15T08:01:33;101841.59;;;0.74;85.22
70909;BME280;58554;52.006;5.926;2023-02-15T08:04:05;101830.31;;;0.83;85.56
70909;BME280;58554;52.006;5.926;2023-02-15T08:06:35;101836.41;;;0.96;85.52
70909;BME280;58554;52.006;5.926;2023-02-15T08:09:04;101825.97;;;1.03;85.20
70909;BME280;58554;52.006;5.926;2023-02-15T08:11:32;101831.19;;;1.11;85.55
70909;BME280;58554;52.006;5.926;2023-02-15T08:14:01;101825.09;;;1.20;85.46
70909;BME280;58554;52.006;5.926;2023-02-15T08:16:32;101832.00;;;1.29;85.42
70909;BME280;58554;52.006;5.926;2023-02-15T08:19:04;101833.75;;;1.42;85.46
70909;BME280;58554;52.006;5.926;2023-02-15T08:21:35;101828.47;;;1.57;85.34
70909;BME280;58554;52.006;5.926;2023-02-15T08:24:06;101829.31;;;1.72;85.13
70909;BME280;58554;52.006;5.926;2023-02-15T08:26:34;101823.16;;;1.85;85.25
70909;BME280;58554;52.006;5.926;2023-02-15T08:29:02;101821.38;;;2.02;85.30
70909;BME280;58554;52.006;5.926;2023-02-15T08:31:29;101815.22;;;2.13;85.02
70909;BME280;58554;52.006;5.926;2023-02-15T08:33:57;101815.19;;;2.19;84.75
70909;BME280;58554;52.006;5.926;2023-02-15T08:36:27;101816.91;;;2.23;84.71
70909;BME280;58554;52.006;5.926;2023-02-15T08:38:58;101801.22;;;2.26;84.55
70909;BME280;58554;52.006;5.926;2023-02-15T08:41:28;101796.84;;;2.30;84.57
70909;BME280;58554;52.006;5.926;2023-02-15T08:43:57;101800.28;;;2.36;84.25
70909;BME280;58554;52.006;5.926;2023-02-15T08:46:27;101797.69;;;2.36;83.83
70909;BME280;58554;52.006;5.926;2023-02-15T08:48:56;101791.56;;;2.40;84.06
70909;BME280;58554;52.006;5.926;2023-02-15T08:51:27;101788.91;;;2.45;83.79
70909;BME280;58554;52.006;5.926;2023-02-15T08:53:57;101792.34;;;2.52;83.58
70909;BME280;58554;52.006;5.926;2023-02-15T08:56:26;101795.78;;;2.57;83.54
70909;BME280;58554;52.006;5.926;2023-02-15T08:58:55;101799.22;;;2.62;83.49
70909;BME280;58554;52.006;5.926;2023-02-15T09:01:23;101798.31;;;2.69;83.48
70909;BME280;58554;52.006;5.926;2023-02-15T09:03:55;101805.22;;;2.75;83.07
70909;BME280;58554;52.006;5.926;2023-02-15T09:06:26;101788.63;;;2.80;82.92
70909;BME280;58554;52.006;5.926;2023-02-15T09:08:54;101788.56;;;2.87;82.96
70909;BME280;58554;52.006;5.926;2023-02-15T09:11:23;101791.09;;;2.96;83.06
70909;BME280;58554;52.006;5.926;2023-02-15T09:13:54;101795.34;;;3.06;83.03
70909;BME280;58554;52.006;5.926;2023-02-15T09:16:23;101783.97;;;3.13;82.67
70909;BME280;58554;52.006;5.926;2023-02-15T09:18:52;101792.59;;;3.21;81.81
70909;BME280;58554;52.006;5.926;2023-02-15T09:21:21;101789.88;;;3.29;82.12
70909;BME280;58554;52.006;5.926;2023-02-15T09:23:56;101790.66;;;3.39;82.30
70909;BME280;58554;52.006;5.926;2023-02-15T09:26:25;101786.22;;;3.47;82.04
70909;BME280;58554;52.006;5.926;2023-02-15T09:28:54;101781.75;;;3.58;82.20
70909;BME280;58554;52.006;5.926;2023-02-15T09:31:24;101785.94;;;3.70;82.05
70909;BME280;58554;52.006;5.926;2023-02-15T09:33:53;101787.56;;;3.79;81.48
70909;BME280;58554;52.006;5.926;2023-02-15T09:36:21;101783.09;;;3.90;81.39
70909;BME280;58554;52.006;5.926;2023-02-15T09:38:55;101788.16;;;4.02;81.82
70909;BME280;58554;52.006;5.926;2023-02-15T09:41:35;101787.94;;;4.18;81.84
70909;BME280;58554;52.006;5.926;2023-02-15T09:44:21;101778.13;;;4.31;81.49
70909;BME280;58554;52.006;5.926;2023-02-15T09:47:18;101778.81;;;4.43;81.88
70909;BME280;58554;52.006;5.926;2023-02-15T09:50:06;101784.75;;;4.56;81.38
70909;BME280;58554;52.006;5.926;2023-02-15T09:52:52;101770.63;;;4.65;81.30
70909;BME280;58554;52.006;5.926;2023-02-15T09:55:44;101781.78;;;4.76;81.30
70909;BME280;58554;52.006;5.926;2023-02-15T09:58:22;101774.66;;;4.84;80.58
70909;BME280;58554;52.006;5.926;2023-02-15T10:01:04;101770.16;;;4.93;80.72
70909;BME280;58554;52.006;5.926;2023-02-15T10:03:42;101771.72;;;5.04;80.98
70909;BME280;58554;52.006;5.926;2023-02-15T10:06:32;101775.03;;;5.14;80.70
70909;BME280;58554;52.006;5.926;2023-02-15T10:09:26;101779.22;;;5.24;80.35
70909;BME280;58554;52.006;5.926;2023-02-15T10:15:28;101770.00;;;5.50;80.24
70909;BME280;58554;52.006;5.926;2023-02-15T10:18:31;101772.28;;;5.65;79.65
70909;BME280;58554;52.006;5.926;2023-02-15T10:21:15;101767.75;;;5.74;79.79
70909;BME280;58554;52.006;5.926;2023-02-15T10:24:05;101770.13;;;5.84;78.59
70909;BME280;58554;52.006;5.926;2023-02-15T10:26:48;101779.59;;;5.92;78.09
70909;BME280;58554;52.006;5.926;2023-02-15T10:29:26;101775.97;;;5.99;77.72
70909;BME280;58554;52.006;5.926;2023-02-15T10:32:08;101772.22;;;6.09;77.59
70909;BME280;58554;52.006;5.926;2023-02-15T10:34:50;101764.09;;;6.20;77.99
70909;BME280;58554;52.006;5.926;2023-02-15T10:37:38;101769.06;;;6.32;77.57
70909;BME280;58554;52.006;5.926;2023-02-15T10:40:28;101767.00;;;6.45;77.52
70909;BME280;58554;52.006;5.926;2023-02-15T10:43:15;101768.56;;;6.54;76.89
70909;BME280;58554;52.006;5.926;2023-02-15T10:45:58;101770.91;;;6.64;75.83
70909;BME280;58554;52.006;5.926;2023-02-15T10:48:47;101767.25;;;6.72;76.19
70909;BME280;58554;52.006;5.926;2023-02-15T10:51:42;101766.13;;;6.80;75.08
70909;BME280;58554;52.006;5.926;2023-02-15T10:54:26;101760.63;;;6.89;75.74
70909;BME280;58554;52.006;5.926;2023-02-15T10:57:04;101758.56;;;7.02;75.61
70909;BME280;58554;52.006;5.926;2023-02-15T10:59:51;101748.41;;;7.21;76.70
70909;BME280;58554;52.006;5.926;2023-02-15T11:02:50;101759.22;;;7.43;75.41
70909;BME280;58554;52.006;5.926;2023-02-15T11:05:39;101762.47;;;7.53;73.73
70909;BME280;58554;52.006;5.926;2023-02-15T11:08:11;101758.63;;;7.65;73.63
70909;BME280;58554;52.006;5.926;2023-02-15T11:10:41;101759.06;;;7.79;74.72
70909;BME280;58554;52.006;5.926;2023-02-15T11:13:15;101757.94;;;7.88;73.25
70909;BME280;58554;52.006;5.926;2023-02-15T11:15:47;101762.84;;;8.00;73.18
70909;BME280;58554;52.006;5.926;2023-02-15T11:18:25;101753.56;;;8.17;72.95
70909;BME280;58554;52.006;5.926;2023-02-15T11:21:02;101749.69;;;8.27;74.06
70909;BME280;58554;52.006;5.926;2023-02-15T11:23:35;101756.50;;;8.34;72.80
70909;BME280;58554;52.006;5.926;2023-02-15T11:26:13;101744.09;;;8.38;72.82
70909;BME280;58554;52.006;5.926;2023-02-15T11:28:47;101741.47;;;8.38;71.52
70909;BME280;58554;52.006;5.926;2023-02-15T11:31:20;101751.03;;;8.40;70.21
70909;BME280;58554;52.006;5.926;2023-02-15T11:33:55;101739.63;;;8.40;69.79
70909;BME280;58554;52.006;5.926;2023-02-15T11:36:30;101735.09;;;8.43;71.22
70909;BME280;58554;52.006;5.926;2023-02-15T11:39:08;101732.09;;;8.54;72.09
70909;BME280;58554;52.006;5.926;2023-02-15T11:41:41;101729.03;;;8.68;71.91
70909;BME280;58554;52.006;5.926;2023-02-15T11:44:19;101726.66;;;8.85;72.28
70909;BME280;58554;52.006;5.926;2023-02-15T11:46:51;101720.94;;;8.98;69.59
70909;BME280;58554;52.006;5.926;2023-02-15T11:49:34;101723.88;;;9.15;69.90
70909;BME280;58554;52.006;5.926;2023-02-15T11:52:04;101720.66;;;9.32;70.38
70909;BME280;58554;52.006;5.926;2023-02-15T11:54:45;101710.13;;;9.54;69.73
70909;BME280;58554;52.006;5.926;2023-02-15T11:57:17;101698.56;;;9.80;69.93
70909;BME280;58554;52.006;5.926;2023-02-15T11:59:53;101693.31;;;10.02;68.71
70909;BME280;58554;52.006;5.926;2023-02-15T12:02:24;101687.16;;;10.24;69.57
70909;BME280;58554;52.006;5.926;2023-02-15T12:04:55;101686.44;;;10.41;68.25
70909;BME280;58554;52.006;5.926;2023-02-15T12:07:28;101685.88;;;10.54;65.66
70909;BME280;58554;52.006;5.926;2023-02-15T12:10:03;101684.28;;;10.71;67.56
70909;BME280;58554;52.006;5.926;2023-02-15T12:12:33;101668.81;;;11.03;68.22
70909;BME280;58554;52.006;5.926;2023-02-15T12:15:03;101664.06;;;11.49;66.05
70909;BME280;58554;52.006;5.926;2023-02-15T12:17:34;101658.47;;;11.91;65.33
70909;BME280;58554;52.006;5.926;2023-02-15T12:20:24;101653.44;;;12.41;64.25
70909;BME280;58554;52.006;5.926;2023-02-15T12:22:59;101650.25;;;13.02;66.97
70909;BME280;58554;52.006;5.926;2023-02-15T12:25:35;101641.84;;;13.59;65.77
70909;BME280;58554;52.006;5.926;2023-02-15T12:28:05;101640.78;;;13.93;64.57
70909;BME280;58554;52.006;5.926;2023-02-15T12:30:49;101646.44;;;14.33;62.11
70909;BME280;58554;52.006;5.926;2023-02-15T12:33:26;101641.50;;;14.72;63.01
70909;BME280;58554;52.006;5.926;2023-02-15T12:36:01;101632.56;;;15.16;62.66
70909;BME280;58554;52.006;5.926;2023-02-15T12:38:36;101628.13;;;15.58;61.98
70909;BME280;58554;52.006;5.926;2023-02-15T12:41:05;101637.16;;;15.97;62.14
70909;BME280;58554;52.006;5.926;2023-02-15T12:44:03;101625.84;;;16.33;57.18
70909;BME280;58554;52.006;5.926;2023-02-15T12:46:32;101631.06;;;16.48;57.31
70909;BME280;58554;52.006;5.926;2023-02-15T12:49:06;101629.72;;;16.80;57.13
70909;BME280;58554;52.006;5.926;2023-02-15T12:51:48;101625.72;;;17.37;57.16
70909;BME280;58554;52.006;5.926;2023-02-15T12:54:37;101613.72;;;17.80;52.41
70909;BME280;58554;52.006;5.926;2023-02-15T12:57:30;101629.16;;;18.12;50.28
70909;BME280;58554;52.006;5.926;2023-02-15T12:59:59;101621.66;;;18.17;53.47
70909;BME280;58554;52.006;5.926;2023-02-15T13:02:30;101610.16;;;18.39;53.90
70909;BME280;58554;52.006;5.926;2023-02-15T13:05:17;101610.50;;;18.34;48.88
70909;BME280;58554;52.006;5.926;2023-02-15T13:07:53;101608.44;;;18.38;52.65
70909;BME280;58554;52.006;5.926;2023-02-15T13:10:26;101604.88;;;18.73;51.68
70909;BME280;58554;52.006;5.926;2023-02-15T13:12:55;101597.72;;;18.96;50.52
70909;BME280;58554;52.006;5.926;2023-02-15T13:15:26;101596.47;;;19.11;48.34
70909;BME280;58554;52.006;5.926;2023-02-15T13:17:58;101588.53;;;19.10;48.22
70909;BME280;58554;52.006;5.926;2023-02-15T13:20:25;101584.13;;;18.64;46.65
70909;BME280;58554;52.006;5.926;2023-02-15T13:22:58;101583.41;;;18.04;46.57
70909;BME280;58554;52.006;5.926;2023-02-15T13:25:32;101587.06;;;17.54;48.33
70909;BME280;58554;52.006;5.926;2023-02-15T13:28:12;101595.59;;;17.23;49.46
70909;BME280;58554;52.006;5.926;2023-02-15T13:30:45;101592.44;;;17.05;49.26
70909;BME280;58554;52.006;5.926;2023-02-15T13:33:19;101591.91;;;16.87;48.19
70909;BME280;58554;52.006;5.926;2023-02-15T13:35:57;101582.06;;;16.62;49.23